sensor_id;sensor_type;location;lat;lon;timestamp;temperature;humidity
50969;DHT22;36982;51.474;7.228;2023-12-20T00:01:36;7.90;99.90
50969;DHT22;36982;51.474;7.228;2023-12-20T00:04:03;8.00;99.90
50969;DHT22;36982;51.474;7.228;2023-12-20T00:06:29;7.90;99.90
50969;DHT22;36982;51.474;7.228;2023-12-20T00:08:55;7.90;99.90
50969;DHT22;36982;51.474;7.228;2023-12-20T00:11:20;7.90;99.90
50969;DHT22;36982;51.474;7.228;2023-12-20T00:13:46;7.90;99.90
50969;DHT22;36982;51.474;7.228;2023-12-20T00:16:12;7.90;99.90
50969;DHT22;36982;51.474;7.228;2023-12-20T00:18:37;7.80;99.90
50969;DHT22;36982;51.474;7.228;2023-12-20T00:21:03;7.80;99.90
50969;DHT22;36982;51.474;7.228;2023-12-20T00:23:29;7.80;99.90
50969;DHT22;36982;51.474;7.228;2023-12-20T00:25:55;7.80;99.90
50969;DHT22;36982;51.474;7.228;2023-12-20T00:28:20;7.80;99.90
50969;DHT22;36982;51.474;7.228;2023-12-20T00:30:46;7.80;99.90
50969;DHT22;36982;51.474;7.228;2023-12-20T00:33:11;7.80;99.90
50969;DHT22;36982;51.474;7.228;2023-12-20T00:35:37;7.80;99.90
50969;DHT22;36982;51.474;7.228;2023-12-20T00:38:02;7.70;99.90
50969;DHT22;36982;51.474;7.228;2023-12-20T00:40:30;7.80;99.90
50969;DHT22;36982;51.474;7.228;2023-12-20T00:42:55;7.80;99.90
50969;DHT22;36982;51.474;7.228;2023-12-20T00:45:21;7.70;99.90
50969;DHT22;36982;51.474;7.228;2023-12-20T00:47:47;7.90;99.90
50969;DHT22;36982;51.474;7.228;2023-12-20T00:50:12;7.70;99.90
50969;DHT22;36982;51.474;7.228;2023-12-20T00:52:38;7.70;99.90
50969;DHT22;36982;51.474;7.228;2023-12-20T00:55:04;7.60;99.90
50969;DHT22;36982;51.474;7.228;2023-12-20T00:57:30;7.60;99.90
50969;DHT22;36982;51.474;7.228;2023-12-20T00:59:56;7.60;99.90
50969;DHT22;36982;51.474;7.228;2023-12-20T01:02:22;7.50;99.90
50969;DHT22;36982;51.474;7.228;2023-12-20T01:04:47;7.50;99.90
50969;DHT22;36982;51.474;7.228;2023-12-20T01:07:13;7.50;99.90
50969;DHT22;36982;51.474;7.228;2023-12-20T01:09:38;7.50;99.90
50969;DHT22;36982;51.474;7.228;2023-12-20T01:12:04;7.40;99.90
50969;DHT22;36982;51.474;7.228;2023-12-20T01:14:30;7.40;99.90
50969;DHT22;36982;51.474;7.228;2023-12-20T01:16:55;7.40;99.90
50969;DHT22;36982;51.474;7.228;2023-12-20T01:19:21;7.40;99.90
50969;DHT22;36982;51.474;7.228;2023-12-20T01:21:46;7.40;99.90
50969;DHT22;36982;51.474;7.228;2023-12-20T01:24:12;7.50;99.90
50969;DHT22;36982;51.474;7.228;2023-12-20T01:26:38;7.50;99.90
50969;DHT22;36982;51.474;7.228;2023-12-20T01:29:03;7.50;99.90
50969;DHT22;36982;51.474;7.228;2023-12-20T01:31:29;7.50;99.90
50969;DHT22;36982;51.474;7.228;2023-12-20T01:33:54;7.50;99.90
50969;DHT22;36982;51.474;7.228;2023-12-20T01:36:20;7.40;99.90
50969;DHT22;36982;51.474;7.228;2023-12-20T01:38:45;7.50;99.90
50969;DHT22;36982;51.474;7.228;2023-12-20T01:41:11;7.40;99.90
50969;DHT22;36982;51.474;7.228;2023-12-20T01:43:37;7.40;99.90
50969;DHT22;36982;51.474;7.228;2023-12-20T01:46:03;7.40;99.90
50969;DHT22;36982;51.474;7.228;2023-12-20T01:48:29;7.40;99.90
50969;DHT22;36982;51.474;7.228;2023-12-20T01:50:58;7.40;99.90
50969;DHT22;36982;51.474;7.228;2023-12-20T01:53:25;7.30;99.90
50969;DHT22;36982;51.474;7.228;2023-12-20T01:55:54;7.30;99.90
50969;DHT22;36982;51.474;7.228;2023-12-20T01:58:20;7.20;99.90
50969;DHT22;36982;51.474;7.228;2023-12-20T02:00:46;7.20;99.90
50969;DHT22;36982;51.474;7.228;2023-12-20T02:03:12;7.10;99.90
50969;DHT22;36982;51.474;7.228;2023-12-20T02:05:38;7.10;99.90
50969;DHT22;36982;51.474;7.228;2023-12-20T02:08:04;7.10;99.90
50969;DHT22;36982;51.474;7.228;2023-12-20T02:10:31;7.10;99.90
50969;DHT22;36982;51.474;7.228;2023-12-20T02:12:57;7.00;99.90
50969;DHT22;36982;51.474;7.228;2023-12-20T02:15:22;7.00;99.90
50969;DHT22;36982;51.474;7.228;2023-12-20T02:17:49;6.90;99.90
50969;DHT22;36982;51.474;7.228;2023-12-20T02:20:14;6.80;99.90
50969;DHT22;36982;51.474;7.228;2023-12-20T02:22:40;6.80;99.90
50969;DHT22;36982;51.474;7.228;2023-12-20T02:25:06;6.70;99.90
50969;DHT22;36982;51.474;7.228;2023-12-20T02:27:32;6.70;99.90
50969;DHT22;36982;51.474;7.228;2023-12-20T02:29:57;6.60;99.90
50969;DHT22;36982;51.474;7.228;2023-12-20T02:32:24;6.60;99.90
50969;DHT22;36982;51.474;7.228;2023-12-20T02:34:54;6.60;99.90
50969;DHT22;36982;51.474;7.228;2023-12-20T02:37:20;6.50;99.90
50969;DHT22;36982;51.474;7.228;2023-12-20T02:39:45;6.60;99.90
50969;DHT22;36982;51.474;7.228;2023-12-20T02:42:11;6.70;99.90
50969;DHT22;36982;51.474;7.228;2023-12-20T02:44:36;6.70;99.90
50969;DHT22;36982;51.474;7.228;2023-12-20T02:47:02;6.80;99.90
50969;DHT22;36982;51.474;7.228;2023-12-20T02:49:28;6.80;99.90
50969;DHT22;36982;51.474;7.228;2023-12-20T02:51:53;6.90;99.90
50969;DHT22;36982;51.474;7.228;2023-12-20T02:54:19;6.90;99.90
50969;DHT22;36982;51.474;7.228;2023-12-20T02:56:45;6.90;99.90
50969;DHT22;36982;51.474;7.228;2023-12-20T02:59:10;7.00;99.90
50969;DHT22;36982;51.474;7.228;2023-12-20T03:01:42;6.90;99.90
50969;DHT22;36982;51.474;7.228;2023-12-20T03:04:08;6.90;99.90
50969;DHT22;36982;51.474;7.228;2023-12-20T03:06:33;6.90;99.90
50969;DHT22;36982;51.474;7.228;2023-12-20T03:08:59;6.90;99.90
50969;DHT22;36982;51.474;7.228;2023-12-20T03:11:28;6.90;99.90
50969;DHT22;36982;51.474;7.228;2023-12-20T03:13:54;7.00;99.90
50969;DHT22;36982;51.474;7.228;2023-12-20T03:16:20;7.10;99.90
50969;DHT22;36982;51.474;7.228;2023-12-20T03:18:45;6.90;99.90
50969;DHT22;36982;51.474;7.228;2023-12-20T03:21:11;6.90;99.90
50969;DHT22;36982;51.474;7.228;2023-12-20T03:23:37;6.90;99.90
50969;DHT22;36982;51.474;7.228;2023-12-20T03:26:02;6.90;99.90
50969;DHT22;36982;51.474;7.228;2023-12-20T03:28:29;6.90;99.90
50969;DHT22;36982;51.474;7.228;2023-12-20T03:30:55;6.80;99.90
50969;DHT22;36982;51.474;7.228;2023-12-20T03:33:20;6.80;99.90
50969;DHT22;36982;51.474;7.228;2023-12-20T03:35:46;6.80;99.90
50969;DHT22;36982;51.474;7.228;2023-12-20T03:38:12;6.80;99.90
50969;DHT22;36982;51.474;7.228;2023-12-20T03:40:37;6.70;99.90
50969;DHT22;36982;51.474;7.228;2023-12-20T03:43:03;6.70;99.90
50969;DHT22;36982;51.474;7.228;2023-12-20T03:45:29;6.70;99.90
50969;DHT22;36982;51.474;7.228;2023-12-20T03:47:54;6.70;99.90
50969;DHT22;36982;51.474;7.228;2023-12-20T03:50:25;6.50;99.90
50969;DHT22;36982;51.474;7.228;2023-12-20T03:52:50;6.50;99.90
50969;DHT22;36982;51.474;7.228;2023-12-20T03:55:16;6.40;99.90
50969;DHT22;36982;51.474;7.228;2023-12-20T03:57:42;6.30;99.90
50969;DHT22;36982;51.474;7.228;2023-12-20T04:00:08;6.40;99.90
50969;DHT22;36982;51.474;7.228;2023-12-20T04:02:40;6.30;99.90
50969;DHT22;36982;51.474;7.228;2023-12-20T04:05:06;6.40;99.90
50969;DHT22;36982;51.474;7.228;2023-12-20T04:07:32;6.30;99.90
50969;DHT22;36982;51.474;7.228;2023-12-20T04:09:58;6.20;99.90
50969;DHT22;36982;51.474;7.228;2023-12-20T04:12:24;6.20;99.90
50969;DHT22;36982;51.474;7.228;2023-12-20T04:14:49;6.30;99.90
50969;DHT22;36982;51.474;7.228;2023-12-20T04:17:15;6.30;99.90
50969;DHT22;36982;51.474;7.228;2023-12-20T04:19:44;6.20;99.90
50969;DHT22;36982;51.474;7.228;2023-12-20T04:22:09;6.20;99.90
50969;DHT22;36982;51.474;7.228;2023-12-20T04:24:35;6.30;99.90
50969;DHT22;36982;51.474;7.228;2023-12-20T04:27:01;6.30;99.90
50969;DHT22;36982;51.474;7.228;2023-12-20T04:29:27;6.30;99.90
50969;DHT22;36982;51.474;7.228;2023-12-20T04:31:52;6.30;99.90
50969;DHT22;36982;51.474;7.228;2023-12-20T04:34:18;6.10;99.90
50969;DHT22;36982;51.474;7.228;2023-12-20T04:36:44;6.20;99.90
50969;DHT22;36982;51.474;7.228;2023-12-20T04:39:11;6.20;99.90
50969;DHT22;36982;51.474;7.228;2023-12-20T04:41:36;6.30;99.90
50969;DHT22;36982;51.474;7.228;2023-12-20T04:44:02;6.20;99.90
50969;DHT22;36982;51.474;7.228;2023-12-20T04:46:27;6.20;99.90
50969;DHT22;36982;51.474;7.228;2023-12-20T04:48:53;6.20;99.90
50969;DHT22;36982;51.474;7.228;2023-12-20T04:51:18;6.20;99.90
50969;DHT22;36982;51.474;7.228;2023-12-20T04:53:44;6.20;99.90
50969;DHT22;36982;51.474;7.228;2023-12-20T04:56:10;6.10;99.90
50969;DHT22;36982;51.474;7.228;2023-12-20T04:58:35;6.20;99.90
50969;DHT22;36982;51.474;7.228;2023-12-20T05:01:01;6.20;99.90
50969;DHT22;36982;51.474;7.228;2023-12-20T05:03:26;6.40;99.90
50969;DHT22;36982;51.474;7.228;2023-12-20T05:05:52;6.20;99.90
50969;DHT22;36982;51.474;7.228;2023-12-20T05:08:17;6.20;99.90
50969;DHT22;36982;51.474;7.228;2023-12-20T05:10:43;6.20;99.90
50969;DHT22;36982;51.474;7.228;2023-12-20T05:13:09;6.20;99.90
50969;DHT22;36982;51.474;7.228;2023-12-20T05:15:34;6.20;99.90
50969;DHT22;36982;51.474;7.228;2023-12-20T05:18:00;6.20;99.90
50969;DHT22;36982;51.474;7.228;2023-12-20T05:20:25;6.30;99.90
50969;DHT22;36982;51.474;7.228;2023-12-20T05:22:51;6.20;99.90
50969;DHT22;36982;51.474;7.228;2023-12-20T05:25:17;6.20;99.90
50969;DHT22;36982;51.474;7.228;2023-12-20T05:27:42;6.00;99.90
50969;DHT22;36982;51.474;7.228;2023-12-20T05:30:08;6.10;99.90
50969;DHT22;36982;51.474;7.228;2023-12-20T05:32:34;6.10;99.90
50969;DHT22;36982;51.474;7.228;2023-12-20T05:34:59;6.10;99.90
50969;DHT22;36982;51.474;7.228;2023-12-20T05:37:25;6.20;99.90
50969;DHT22;36982;51.474;7.228;2023-12-20T05:39:51;6.10;99.90
50969;DHT22;36982;51.474;7.228;2023-12-20T05:42:16;6.20;99.90
50969;DHT22;36982;51.474;7.228;2023-12-20T05:44:42;6.20;99.90
50969;DHT22;36982;51.474;7.228;2023-12-20T05:47:07;6.10;99.90
50969;DHT22;36982;51.474;7.228;2023-12-20T05:49:33;6.20;99.90
50969;DHT22;36982;51.474;7.228;2023-12-20T05:51:58;6.20;99.90
50969;DHT22;36982;51.474;7.228;2023-12-20T05:54:24;6.20;99.90
50969;DHT22;36982;51.474;7.228;2023-12-20T05:56:50;6.20;99.90
50969;DHT22;36982;51.474;7.228;2023-12-20T05:59:16;6.10;99.90
50969;DHT22;36982;51.474;7.228;2023-12-20T06:01:41;6.20;99.90
50969;DHT22;36982;51.474;7.228;2023-12-20T06:04:07;6.10;99.90
50969;DHT22;36982;51.474;7.228;2023-12-20T06:06:32;6.20;99.90
50969;DHT22;36982;51.474;7.228;2023-12-20T06:08:58;6.20;99.90
50969;DHT22;36982;51.474;7.228;2023-12-20T06:11:24;6.20;99.90
50969;DHT22;36982;51.474;7.228;2023-12-20T06:13:49;6.20;99.90
50969;DHT22;36982;51.474;7.228;2023-12-20T06:16:17;6.20;99.90
50969;DHT22;36982;51.474;7.228;2023-12-20T06:18:43;6.20;99.90
50969;DHT22;36982;51.474;7.228;2023-12-20T06:21:09;6.20;99.90
50969;DHT22;36982;51.474;7.228;2023-12-20T06:23:38;6.20;99.90
50969;DHT22;36982;51.474;7.228;2023-12-20T06:26:04;6.20;99.90
50969;DHT22;36982;51.474;7.228;2023-12-20T06:28:29;6.30;99.90
50969;DHT22;36982;51.474;7.228;2023-12-20T06:30:55;6.20;99.90
50969;DHT22;36982;51.474;7.228;2023-12-20T06:33:22;6.30;99.90
50969;DHT22;36982;51.474;7.228;2023-12-20T06:35:48;6.40;99.90
50969;DHT22;36982;51.474;7.228;2023-12-20T06:38:14;6.30;99.90
50969;DHT22;36982;51.474;7.228;2023-12-20T06:40:39;6.30;99.90
50969;DHT22;36982;51.474;7.228;2023-12-20T06:43:05;6.30;99.90
50969;DHT22;36982;51.474;7.228;2023-12-20T06:45:32;6.20;99.90
50969;DHT22;36982;51.474;7.228;2023-12-20T06:47:58;6.30;99.90
50969;DHT22;36982;51.474;7.228;2023-12-20T06:50:24;6.30;99.90
50969;DHT22;36982;51.474;7.228;2023-12-20T06:52:49;6.20;99.90
50969;DHT22;36982;51.474;7.228;2023-12-20T06:55:15;6.20;99.90
50969;DHT22;36982;51.474;7.228;2023-12-20T06:57:40;6.30;99.90
50969;DHT22;36982;51.474;7.228;2023-12-20T07:00:07;6.30;99.90
50969;DHT22;36982;51.474;7.228;2023-12-20T07:02:34;6.30;99.90
50969;DHT22;36982;51.474;7.228;2023-12-20T07:05:00;6.30;99.90
50969;DHT22;36982;51.474;7.228;2023-12-20T07:07:25;6.50;99.90
50969;DHT22;36982;51.474;7.228;2023-12-20T07:09:51;6.30;99.90
50969;DHT22;36982;51.474;7.228;2023-12-20T07:12:17;6.30;99.90
50969;DHT22;36982;51.474;7.228;2023-12-20T07:14:45;6.20;99.90
50969;DHT22;36982;51.474;7.228;2023-12-20T07:17:10;6.30;99.90
50969;DHT22;36982;51.474;7.228;2023-12-20T07:19:39;6.30;99.90
50969;DHT22;36982;51.474;7.228;2023-12-20T07:22:05;6.30;99.90
50969;DHT22;36982;51.474;7.228;2023-12-20T07:24:32;6.40;99.90
50969;DHT22;36982;51.474;7.228;2023-12-20T07:26:58;6.40;99.90
50969;DHT22;36982;51.474;7.228;2023-12-20T07:29:24;6.50;99.90
50969;DHT22;36982;51.474;7.228;2023-12-20T07:31:50;6.50;99.90
50969;DHT22;36982;51.474;7.228;2023-12-20T07:34:17;6.50;99.90
50969;DHT22;36982;51.474;7.228;2023-12-20T07:36:43;6.40;99.90
50969;DHT22;36982;51.474;7.228;2023-12-20T07:39:09;6.50;99.90
50969;DHT22;36982;51.474;7.228;2023-12-20T07:41:34;6.40;99.90
50969;DHT22;36982;51.474;7.228;2023-12-20T07:44:00;6.50;99.90
50969;DHT22;36982;51.474;7.228;2023-12-20T07:46:25;6.50;99.90
50969;DHT22;36982;51.474;7.228;2023-12-20T07:48:51;6.50;99.90
50969;DHT22;36982;51.474;7.228;2023-12-20T07:51:16;6.60;99.90
50969;DHT22;36982;51.474;7.228;2023-12-20T07:53:42;6.40;99.90
50969;DHT22;36982;51.474;7.228;2023-12-20T07:56:19;6.50;99.90
50969;DHT22;36982;51.474;7.228;2023-12-20T07:58:45;6.50;99.90
50969;DHT22;36982;51.474;7.228;2023-12-20T08:01:12;6.60;99.90
50969;DHT22;36982;51.474;7.228;2023-12-20T08:03:38;6.60;99.90
50969;DHT22;36982;51.474;7.228;2023-12-20T08:06:04;6.70;99.90
50969;DHT22;36982;51.474;7.228;2023-12-20T08:08:30;6.60;99.90
50969;DHT22;36982;51.474;7.228;2023-12-20T08:10:55;6.70;99.90
50969;DHT22;36982;51.474;7.228;2023-12-20T08:13:23;6.70;99.90
50969;DHT22;36982;51.474;7.228;2023-12-20T08:15:51;6.60;99.90
50969;DHT22;36982;51.474;7.228;2023-12-20T08:18:17;6.60;99.90
50969;DHT22;36982;51.474;7.228;2023-12-20T08:20:42;6.50;99.90
50969;DHT22;36982;51.474;7.228;2023-12-20T08:23:08;6.50;99.90
50969;DHT22;36982;51.474;7.228;2023-12-20T08:25:34;6.60;99.90
50969;DHT22;36982;51.474;7.228;2023-12-20T08:27:59;6.70;99.90
50969;DHT22;36982;51.474;7.228;2023-12-20T08:30:26;6.60;99.90
50969;DHT22;36982;51.474;7.228;2023-12-20T08:32:51;6.70;99.90
50969;DHT22;36982;51.474;7.228;2023-12-20T08:35:17;6.70;99.90
50969;DHT22;36982;51.474;7.228;2023-12-20T08:37:44;6.70;99.90
50969;DHT22;36982;51.474;7.228;2023-12-20T08:40:10;6.60;99.90
50969;DHT22;36982;51.474;7.228;2023-12-20T08:42:35;6.60;99.90
50969;DHT22;36982;51.474;7.228;2023-12-20T08:45:01;6.70;99.90
50969;DHT22;36982;51.474;7.228;2023-12-20T08:47:29;6.70;99.90
50969;DHT22;36982;51.474;7.228;2023-12-20T08:49:54;6.80;99.90
50969;DHT22;36982;51.474;7.228;2023-12-20T08:52:22;6.70;99.90
50969;DHT22;36982;51.474;7.228;2023-12-20T08:54:49;6.80;99.90
50969;DHT22;36982;51.474;7.228;2023-12-20T08:57:18;6.80;99.90
50969;DHT22;36982;51.474;7.228;2023-12-20T08:59:44;7.00;99.90
50969;DHT22;36982;51.474;7.228;2023-12-20T09:02:09;6.80;99.90
50969;DHT22;36982;51.474;7.228;2023-12-20T09:04:35;6.80;99.90
50969;DHT22;36982;51.474;7.228;2023-12-20T09:07:01;6.80;99.90
50969;DHT22;36982;51.474;7.228;2023-12-20T09:09:26;6.80;99.90
50969;DHT22;36982;51.474;7.228;2023-12-20T09:11:52;6.90;99.90
50969;DHT22;36982;51.474;7.228;2023-12-20T09:14:18;7.00;99.90
50969;DHT22;36982;51.474;7.228;2023-12-20T09:16:51;6.80;99.90
50969;DHT22;36982;51.474;7.228;2023-12-20T09:19:17;6.70;99.90
50969;DHT22;36982;51.474;7.228;2023-12-20T09:21:43;6.70;99.90
50969;DHT22;36982;51.474;7.228;2023-12-20T09:24:09;6.80;99.90
50969;DHT22;36982;51.474;7.228;2023-12-20T09:26:35;6.90;99.90
50969;DHT22;36982;51.474;7.228;2023-12-20T09:29:00;6.90;99.90
50969;DHT22;36982;51.474;7.228;2023-12-20T09:31:26;6.80;99.90
50969;DHT22;36982;51.474;7.228;2023-12-20T09:33:52;6.90;99.90
50969;DHT22;36982;51.474;7.228;2023-12-20T09:36:18;6.90;99.90
50969;DHT22;36982;51.474;7.228;2023-12-20T09:38:43;7.00;99.90
50969;DHT22;36982;51.474;7.228;2023-12-20T09:41:09;7.00;99.90
50969;DHT22;36982;51.474;7.228;2023-12-20T09:43:37;6.90;99.90
50969;DHT22;36982;51.474;7.228;2023-12-20T09:46:05;7.00;99.90
50969;DHT22;36982;51.474;7.228;2023-12-20T09:48:31;7.00;99.90
50969;DHT22;36982;51.474;7.228;2023-12-20T09:50:58;7.00;99.90
50969;DHT22;36982;51.474;7.228;2023-12-20T09:53:25;7.00;99.90
50969;DHT22;36982;51.474;7.228;2023-12-20T09:55:58;7.00;99.90
50969;DHT22;36982;51.474;7.228;2023-12-20T09:58:24;7.20;99.90
50969;DHT22;36982;51.474;7.228;2023-12-20T10:00:50;7.10;99.90
50969;DHT22;36982;51.474;7.228;2023-12-20T10:03:16;7.00;99.90
50969;DHT22;36982;51.474;7.228;2023-12-20T10:05:46;7.10;99.90
50969;DHT22;36982;51.474;7.228;2023-12-20T10:08:14;7.10;99.90
50969;DHT22;36982;51.474;7.228;2023-12-20T10:10:40;7.00;99.90
50969;DHT22;36982;51.474;7.228;2023-12-20T10:13:10;7.00;99.90
50969;DHT22;36982;51.474;7.228;2023-12-20T10:15:36;7.10;99.90
50969;DHT22;36982;51.474;7.228;2023-12-20T10:18:03;7.20;99.90
50969;DHT22;36982;51.474;7.228;2023-12-20T10:20:30;7.10;99.90
50969;DHT22;36982;51.474;7.228;2023-12-20T10:22:56;7.10;99.90
50969;DHT22;36982;51.474;7.228;2023-12-20T10:25:23;7.20;99.90
50969;DHT22;36982;51.474;7.228;2023-12-20T10:27:50;7.20;99.90
50969;DHT22;36982;51.474;7.228;2023-12-20T10:30:16;7.20;99.90
50969;DHT22;36982;51.474;7.228;2023-12-20T10:32:41;7.10;99.90
50969;DHT22;36982;51.474;7.228;2023-12-20T10:35:08;7.10;99.90
50969;DHT22;36982;51.474;7.228;2023-12-20T10:37:37;7.20;99.90
50969;DHT22;36982;51.474;7.228;2023-12-20T10:40:04;7.20;99.90
50969;DHT22;36982;51.474;7.228;2023-12-20T10:42:32;7.20;99.90
50969;DHT22;36982;51.474;7.228;2023-12-20T10:44:59;7.30;99.90
50969;DHT22;36982;51.474;7.228;2023-12-20T10:47:25;7.30;99.90
50969;DHT22;36982;51.474;7.228;2023-12-20T10:49:54;7.30;99.90
50969;DHT22;36982;51.474;7.228;2023-12-20T10:52:23;7.20;99.90
50969;DHT22;36982;51.474;7.228;2023-12-20T10:54:49;7.30;99.90
50969;DHT22;36982;51.474;7.228;2023-12-20T10:57:18;7.20;99.90
50969;DHT22;36982;51.474;7.228;2023-12-20T10:59:45;7.20;99.90
50969;DHT22;36982;51.474;7.228;2023-12-20T11:02:13;7.20;99.90
50969;DHT22;36982;51.474;7.228;2023-12-20T11:04:50;7.10;99.90
50969;DHT22;36982;51.474;7.228;2023-12-20T11:07:32;7.10;99.90
50969;DHT22;36982;51.474;7.228;2023-12-20T11:10:18;7.20;99.90
50969;DHT22;36982;51.474;7.228;2023-12-20T11:13:12;7.20;99.90
50969;DHT22;36982;51.474;7.228;2023-12-20T11:15:41;7.20;99.90
50969;DHT22;36982;51.474;7.228;2023-12-20T11:18:08;7.20;99.90
50969;DHT22;36982;51.474;7.228;2023-12-20T11:20:39;7.20;99.90
50969;DHT22;36982;51.474;7.228;2023-12-20T11:23:06;7.10;99.90
50969;DHT22;36982;51.474;7.228;2023-12-20T11:26:08;7.20;99.90
50969;DHT22;36982;51.474;7.228;2023-12-20T11:28:34;7.20;99.90
50969;DHT22;36982;51.474;7.228;2023-12-20T11:31:01;7.20;99.90
50969;DHT22;36982;51.474;7.228;2023-12-20T11:33:39;7.30;99.90
50969;DHT22;36982;51.474;7.228;2023-12-20T11:36:13;7.40;99.90
50969;DHT22;36982;51.474;7.228;2023-12-20T11:38:54;7.30;99.90
50969;DHT22;36982;51.474;7.228;2023-12-20T11:41:23;7.30;99.90
50969;DHT22;36982;51.474;7.228;2023-12-20T11:43:53;7.30;99.90
50969;DHT22;36982;51.474;7.228;2023-12-20T11:46:19;7.20;99.90
50969;DHT22;36982;51.474;7.228;2023-12-20T11:48:44;7.30;99.90
50969;DHT22;36982;51.474;7.228;2023-12-20T11:51:11;7.40;99.90
50969;DHT22;36982;51.474;7.228;2023-12-20T11:53:37;7.40;99.90
50969;DHT22;36982;51.474;7.228;2023-12-20T11:56:04;7.40;99.90
50969;DHT22;36982;51.474;7.228;2023-12-20T11:58:30;7.40;99.90
50969;DHT22;36982;51.474;7.228;2023-12-20T12:00:56;7.30;99.90
50969;DHT22;36982;51.474;7.228;2023-12-20T12:03:22;7.20;99.90
50969;DHT22;36982;51.474;7.228;2023-12-20T12:05:49;7.40;99.90
50969;DHT22;36982;51.474;7.228;2023-12-20T12:08:15;7.30;99.90
50969;DHT22;36982;51.474;7.228;2023-12-20T12:10:40;7.20;99.90
50969;DHT22;36982;51.474;7.228;2023-12-20T12:13:06;7.30;99.90
50969;DHT22;36982;51.474;7.228;2023-12-20T12:15:42;7.20;99.90
50969;DHT22;36982;51.474;7.228;2023-12-20T12:18:07;7.30;99.90
50969;DHT22;36982;51.474;7.228;2023-12-20T12:20:33;7.20;99.90
50969;DHT22;36982;51.474;7.228;2023-12-20T12:23:01;7.20;99.90
50969;DHT22;36982;51.474;7.228;2023-12-20T12:25:29;7.10;99.90
50969;DHT22;36982;51.474;7.228;2023-12-20T12:27:56;7.10;99.90
50969;DHT22;36982;51.474;7.228;2023-12-20T12:30:22;7.10;99.90
50969;DHT22;36982;51.474;7.228;2023-12-20T12:32:47;7.10;99.90
50969;DHT22;36982;51.474;7.228;2023-12-20T12:35:14;7.10;99.90
50969;DHT22;36982;51.474;7.228;2023-12-20T12:37:40;7.10;99.90
50969;DHT22;36982;51.474;7.228;2023-12-20T12:40:10;7.10;99.90
50969;DHT22;36982;51.474;7.228;2023-12-20T12:42:37;7.10;99.90
50969;DHT22;36982;51.474;7.228;2023-12-20T12:45:03;7.10;99.90
50969;DHT22;36982;51.474;7.228;2023-12-20T12:47:30;7.10;99.90
50969;DHT22;36982;51.474;7.228;2023-12-20T12:49:56;7.20;99.90
50969;DHT22;36982;51.474;7.228;2023-12-20T12:52:21;7.20;99.90
50969;DHT22;36982;51.474;7.228;2023-12-20T12:54:48;7.10;99.90
50969;DHT22;36982;51.474;7.228;2023-12-20T12:57:14;7.20;99.90
50969;DHT22;36982;51.474;7.228;2023-12-20T12:59:44;7.10;99.90
50969;DHT22;36982;51.474;7.228;2023-12-20T13:02:14;7.20;99.90
50969;DHT22;36982;51.474;7.228;2023-12-20T13:04:41;7.20;99.90
50969;DHT22;36982;51.474;7.228;2023-12-20T13:07:10;7.20;99.90
50969;DHT22;36982;51.474;7.228;2023-12-20T13:09:36;7.20;99.90
50969;DHT22;36982;51.474;7.228;2023-12-20T13:12:02;7.20;99.90
50969;DHT22;36982;51.474;7.228;2023-12-20T13:16:56;7.10;99.90
50969;DHT22;36982;51.474;7.228;2023-12-20T13:19:23;7.20;99.90
50969;DHT22;36982;51.474;7.228;2023-12-20T13:21:48;7.30;99.90
50969;DHT22;36982;51.474;7.228;2023-12-20T13:24:14;7.30;99.90
50969;DHT22;36982;51.474;7.228;2023-12-20T13:26:40;7.30;99.90
50969;DHT22;36982;51.474;7.228;2023-12-20T13:29:05;7.40;99.90
50969;DHT22;36982;51.474;7.228;2023-12-20T13:31:31;7.50;99.90
50969;DHT22;36982;51.474;7.228;2023-12-20T13:33:56;7.40;99.90
50969;DHT22;36982;51.474;7.228;2023-12-20T13:36:22;7.40;99.90
50969;DHT22;36982;51.474;7.228;2023-12-20T13:38:48;7.40;99.90
50969;DHT22;36982;51.474;7.228;2023-12-20T13:41:14;7.40;99.90
50969;DHT22;36982;51.474;7.228;2023-12-20T13:43:39;7.50;99.90
50969;DHT22;36982;51.474;7.228;2023-12-20T13:46:05;7.30;99.90
50969;DHT22;36982;51.474;7.228;2023-12-20T13:48:30;7.20;99.90
50969;DHT22;36982;51.474;7.228;2023-12-20T13:50:56;7.20;99.90
50969;DHT22;36982;51.474;7.228;2023-12-20T13:53:22;7.20;99.90
50969;DHT22;36982;51.474;7.228;2023-12-20T13:55:47;7.20;99.90
50969;DHT22;36982;51.474;7.228;2023-12-20T13:58:13;7.10;99.90
50969;DHT22;36982;51.474;7.228;2023-12-20T14:00:39;7.10;99.90
50969;DHT22;36982;51.474;7.228;2023-12-20T14:03:05;7.10;99.90
50969;DHT22;36982;51.474;7.228;2023-12-20T14:05:31;7.10;99.90
50969;DHT22;36982;51.474;7.228;2023-12-20T14:07:57;7.10;99.90
50969;DHT22;36982;51.474;7.228;2023-12-20T14:10:23;7.10;99.90
50969;DHT22;36982;51.474;7.228;2023-12-20T14:12:52;7.00;99.90
50969;DHT22;36982;51.474;7.228;2023-12-20T14:15:17;7.10;99.90
50969;DHT22;36982;51.474;7.228;2023-12-20T14:17:43;7.00;99.90
50969;DHT22;36982;51.474;7.228;2023-12-20T14:20:09;7.00;99.90
50969;DHT22;36982;51.474;7.228;2023-12-20T14:22:35;7.00;99.90
50969;DHT22;36982;51.474;7.228;2023-12-20T14:25:01;7.00;99.90
50969;DHT22;36982;51.474;7.228;2023-12-20T14:27:27;6.90;99.90
50969;DHT22;36982;51.474;7.228;2023-12-20T14:29:55;7.00;99.90
50969;DHT22;36982;51.474;7.228;2023-12-20T14:32:21;7.10;99.90
50969;DHT22;36982;51.474;7.228;2023-12-20T14:34:47;7.10;99.90
50969;DHT22;36982;51.474;7.228;2023-12-20T14:37:13;7.10;99.90
50969;DHT22;36982;51.474;7.228;2023-12-20T14:39:39;7.00;99.90
50969;DHT22;36982;51.474;7.228;2023-12-20T14:42:07;6.90;99.90
50969;DHT22;36982;51.474;7.228;2023-12-20T14:44:36;7.00;99.90
50969;DHT22;36982;51.474;7.228;2023-12-20T14:47:02;7.00;99.90
50969;DHT22;36982;51.474;7.228;2023-12-20T14:49:28;7.00;99.90
50969;DHT22;36982;51.474;7.228;2023-12-20T14:51:53;7.10;99.90
50969;DHT22;36982;51.474;7.228;2023-12-20T14:54:19;7.10;99.90
50969;DHT22;36982;51.474;7.228;2023-12-20T14:56:46;7.10;99.90
50969;DHT22;36982;51.474;7.228;2023-12-20T14:59:12;7.10;99.90
50969;DHT22;36982;51.474;7.228;2023-12-20T15:01:38;7.10;99.90
50969;DHT22;36982;51.474;7.228;2023-12-20T15:04:06;7.10;99.90
50969;DHT22;36982;51.474;7.228;2023-12-20T15:06:32;7.20;99.90
50969;DHT22;36982;51.474;7.228;2023-12-20T15:08:59;7.10;99.90
50969;DHT22;36982;51.474;7.228;2023-12-20T15:11:25;7.20;99.90
50969;DHT22;36982;51.474;7.228;2023-12-20T15:13:51;7.20;99.90
50969;DHT22;36982;51.474;7.228;2023-12-20T15:16:24;7.20;99.90
50969;DHT22;36982;51.474;7.228;2023-12-20T15:18:51;7.20;99.90
50969;DHT22;36982;51.474;7.228;2023-12-20T15:21:17;7.20;99.90
50969;DHT22;36982;51.474;7.228;2023-12-20T15:23:43;7.10;99.90
50969;DHT22;36982;51.474;7.228;2023-12-20T15:26:32;7.30;99.90
50969;DHT22;36982;51.474;7.228;2023-12-20T15:28:57;7.30;99.90
50969;DHT22;36982;51.474;7.228;2023-12-20T15:31:23;7.30;99.90
50969;DHT22;36982;51.474;7.228;2023-12-20T15:33:52;7.30;99.90
50969;DHT22;36982;51.474;7.228;2023-12-20T15:36:17;7.30;99.90
50969;DHT22;36982;51.474;7.228;2023-12-20T15:38:43;7.30;99.90
50969;DHT22;36982;51.474;7.228;2023-12-20T15:41:08;7.20;99.90
50969;DHT22;36982;51.474;7.228;2023-12-20T15:43:34;7.20;99.90